Towson, MD

8:35 PM EST on February 25, 2017 (GMT -0500)
Towson Weather | | Change Station

Elev 407 ft 39.38 °N, 76.60 °W | Updated 1 second ago

Partly Cloudy
Partly Cloudy
50.0 °F
Feels Like 49 °F
N
4.0
Wind Variable Wind from West
Gusts 7.0 mph

Today
High -- | Low -- °F
--% Chance of Precip.
Yesterday
High -- | Low -- °F
Precip. -- in
Pressure 29.66 in
Visibility 10.0 miles
Clouds Scattered Clouds 9000 ft
Overcast 12000 ft
Windchill 49 °F
Dew Point 35 °F
Humidity 56%
Rainfall 0.35 in
Snow Depth Not available.
6:44 AM 5:54 PM
Waning Crescent, 0% visible
METAR KMTN 260045Z 28009KT 10SM SCT090 OVC120 12/06 A2966
Pressure 29.66 in
Visibility 10.0 miles
Clouds Scattered Clouds 9000 ft
Overcast 12000 ft
Windchill 49 °F
Dew Point 35 °F
Humidity 56%
Rainfall 0.35 in
Snow Depth Not available.
6:44 AM 5:54 PM
Waning Crescent, 0% visible
METAR KMTN 260045Z 28009KT 10SM SCT090 OVC120 12/06 A2966

Get Your Daily Forecast Email!

Thanks for signing up!

Be on the lookout for a verification email in your inbox.

You'll start receiving the daily forecast at 8 AM.

×

10-Day Weather Forecast

Almanac

Astronomy

Feb. 25, 2017 Rise Set
Actual Time
Civil Twilight
Nautical Twilight
Astronomical Twilight
Moon
Length of Visible Light
Length of Day
Tomorrow will be .
, % of the Moon is Illuminated

Today's Extremes

State Highs State Lows

Community

WunderPhotos

Upload Photos

1,962,540 photos uploaded!

WunderBlog® & News

Nearby

Air Quality

  Air Quality AQ Index Pollutant
Not available.

Snow Depth

Station Depth Elevation

Earthquake Activity

City Distance Mag. Time & Date
Minimum magnitude displayed is 2.5.

Coastal Water Temperatures

Place Temperature

Stations

Nearby Weather Stations

Station Location Temp. Windchill Dew Point Humidity Wind Precip. Elev Updated Type
                   

Watches & Warnings

There are currently no watches in effect.